createdAt,value
2018-03-07T00:00:45.215Z,59.05
2018-03-07T00:03:12.719Z,56.53
2018-03-07T00:05:40.223Z,59.75
2018-03-07T00:08:08.504Z,54.85
2018-03-07T00:10:36.783Z,55.58
2018-03-07T00:13:05.063Z,53.22
2018-03-07T00:15:32.563Z,52.15
2018-03-07T00:18:00.059Z,48.78
2018-03-07T00:20:28.338Z,53.85
2018-03-07T00:22:56.607Z,56.42
2018-03-07T00:25:24.895Z,60.97
2018-03-07T00:27:53.177Z,55.53
2018-03-07T00:30:21.460Z,64.12
2018-03-07T00:32:48.986Z,59.10
2018-03-07T00:35:16.488Z,65.22
2018-03-07T00:37:43.996Z,66.35
2018-03-07T00:40:11.613Z,58.97
2018-03-07T00:42:39.122Z,56.55
2018-03-07T00:45:06.635Z,58.08
2018-03-07T00:47:34.138Z,56.85
2018-03-07T00:50:01.663Z,61.05
2018-03-07T00:52:29.164Z,58.25
2018-03-07T00:54:57.431Z,60.08
2018-03-07T00:57:25.015Z,59.33
2018-03-07T00:59:53.283Z,61.70
2018-03-07T01:02:21.568Z,61.25
2018-03-07T01:04:49.851Z,56.50
2018-03-07T01:07:17.439Z,58.28
2018-03-07T01:09:44.947Z,60.45
2018-03-07T01:12:12.463Z,59.72
2018-03-07T01:14:39.959Z,56.45
2018-03-07T01:17:07.451Z,53.65
2018-03-07T01:19:34.976Z,57.22
2018-03-07T01:22:02.471Z,59.17
2018-03-07T01:24:30.008Z,57.22
2018-03-07T01:26:58.290Z,52.92
2018-03-07T01:29:26.542Z,53.30
2018-03-07T01:31:54.051Z,50.53
2018-03-07T01:34:21.847Z,50.83
2018-03-07T01:36:49.339Z,51.28
2018-03-07T01:39:17.609Z,53.87
2018-03-07T01:41:45.881Z,54.08
2018-03-07T01:44:13.403Z,49.55
2018-03-07T01:46:40.911Z,52.47
2018-03-07T01:49:09.167Z,52.78
2018-03-07T01:51:48.615Z,52.25
2018-03-07T01:54:16.135Z,52.88
2018-03-07T01:56:43.639Z,58.33
2018-03-07T01:59:11.907Z,62.00
2018-03-07T02:01:39.423Z,62.47
2018-03-07T02:04:06.923Z,62.70
2018-03-07T02:06:34.435Z,62.47
2018-03-07T02:09:01.949Z,58.22
2018-03-07T02:11:30.239Z,60.30
2018-03-07T02:13:58.519Z,65.55
2018-03-07T02:16:26.803Z,63.38
2018-03-07T02:18:54.351Z,65.40
2018-03-07T02:21:22.633Z,62.88
2018-03-07T02:23:50.148Z,60.10
2018-03-07T02:26:17.651Z,59.97
2018-03-07T02:28:45.152Z,62.55
2018-03-07T02:31:12.681Z,70.20
2018-03-07T02:33:40.195Z,72.47
2018-03-07T02:49:33.913Z,61.95
2018-03-07T02:52:01.432Z,69.47
2018-03-07T02:54:29.700Z,58.97
2018-03-07T02:56:57.983Z,60.88
2018-03-07T02:59:26.255Z,58.20
2018-03-07T03:01:54.532Z,60.20
2018-03-07T03:04:22.806Z,59.78
2018-03-07T03:06:50.376Z,57.80
2018-03-07T03:09:18.636Z,60.72
2018-03-07T03:11:46.138Z,55.58
2018-03-07T03:14:13.673Z,57.47
2018-03-07T03:16:41.939Z,58.92
2018-03-07T03:19:10.199Z,59.92
2018-03-07T03:21:38.495Z,56.25
2018-03-07T03:24:06.787Z,62.70
2018-03-07T03:26:34.307Z,63.25
2018-03-07T03:29:01.821Z,65.70
2018-03-07T03:31:29.349Z,65.82
2018-03-07T03:33:57.630Z,65.97
2018-03-07T03:36:25.903Z,64.15
2018-03-07T03:38:54.172Z,69.20
2018-03-07T03:41:22.440Z,69.60
2018-03-07T03:43:49.936Z,71.12
2018-03-07T03:46:17.438Z,73.95
2018-03-07T03:48:44.934Z,77.15
2018-03-07T03:51:13.214Z,78.97
2018-03-07T03:53:41.495Z,80.80
2018-03-07T03:56:09.791Z,85.55
2018-03-07T03:58:37.330Z,78.72
2018-03-07T04:01:05.591Z,78.93
2018-03-07T04:03:33.851Z,74.53
2018-03-07T04:06:01.374Z,69.15
2018-03-07T04:08:28.911Z,66.37
2018-03-07T04:10:56.406Z,61.35
2018-03-07T04:13:23.898Z,57.72
2018-03-07T04:15:52.172Z,58.65
2018-03-07T04:18:19.695Z,58.72
2018-03-07T04:20:47.231Z,58.60
2018-03-07T04:23:14.722Z,54.53
2018-03-07T04:25:42.231Z,58.58
2018-03-07T04:28:09.739Z,62.38
2018-03-07T04:30:37.243Z,56.10
2018-03-07T04:33:05.495Z,55.33
2018-03-07T04:35:32.995Z,52.85
2018-03-07T04:38:00.492Z,55.03
2018-03-07T04:40:28.117Z,53.47
2018-03-07T04:42:55.619Z,58.38
2018-03-07T04:45:23.114Z,55.60
2018-03-07T04:47:50.623Z,51.53
2018-03-07T04:50:18.148Z,50.83
2018-03-07T04:52:45.648Z,53.00
2018-03-07T04:55:13.150Z,52.70
2018-03-07T04:57:41.410Z,57.25
2018-03-07T05:00:09.695Z,73.62
2018-03-07T05:02:38.003Z,57.75
2018-03-07T05:05:06.251Z,55.35
2018-03-07T05:07:34.535Z,53.45
2018-03-07T05:10:02.031Z,55.90
2018-03-07T05:12:29.526Z,56.97
2018-03-07T05:14:57.795Z,52.17
2018-03-07T05:17:25.287Z,52.15
2018-03-07T05:19:52.790Z,53.25
2018-03-07T05:22:20.295Z,52.62
2018-03-07T05:24:48.567Z,60.10
2018-03-07T05:27:16.847Z,53.17
2018-03-07T05:29:45.127Z,66.12
2018-03-07T05:32:13.395Z,61.35
2018-03-07T05:34:41.662Z,101.72
2018-03-07T05:37:09.940Z,83.15
2018-03-07T05:39:38.222Z,63.67
2018-03-07T05:42:06.494Z,57.40
2018-03-07T05:44:34.779Z,59.10
2018-03-07T05:47:03.048Z,51.50
2018-03-07T05:49:31.319Z,47.62
2018-03-07T05:51:59.581Z,51.78
2018-03-07T05:54:27.079Z,54.63
2018-03-07T05:56:54.623Z,55.10
2018-03-07T05:59:22.892Z,55.42
2018-03-07T06:01:51.166Z,57.85
2018-03-07T06:04:19.431Z,52.72
2018-03-07T06:06:46.932Z,56.17
2018-03-07T06:09:14.442Z,55.83
2018-03-07T06:11:41.955Z,53.10
2018-03-07T06:14:09.451Z,54.92
2018-03-07T06:16:36.956Z,54.22
2018-03-07T06:19:04.459Z,56.67
2018-03-07T06:21:31.964Z,56.95
2018-03-07T06:24:00.334Z,57.45
2018-03-07T06:26:28.606Z,58.70
2018-03-07T06:28:56.875Z,61.53
2018-03-07T06:31:24.397Z,59.97
2018-03-07T06:33:51.907Z,63.75
2018-03-07T06:36:20.171Z,63.65
2018-03-07T06:38:47.668Z,59.92
2018-03-07T06:41:15.191Z,63.72
2018-03-07T06:43:43.476Z,65.00
2018-03-07T06:46:11.743Z,65.65
2018-03-07T06:48:40.169Z,63.75
2018-03-07T06:51:07.692Z,65.60
2018-03-07T06:53:35.978Z,63.20
2018-03-07T06:56:03.486Z,64.90
2018-03-07T06:58:30.985Z,67.35
2018-03-07T07:00:59.267Z,66.50
2018-03-07T07:03:27.535Z,64.95
2018-03-07T07:05:55.799Z,65.80
2018-03-07T07:08:23.311Z,68.93
2018-03-07T07:10:50.827Z,65.50
2018-03-07T07:13:19.094Z,60.90
2018-03-07T07:15:46.588Z,71.62
2018-03-07T07:18:14.087Z,71.53
2018-03-07T07:20:41.604Z,70.03
2018-03-07T07:23:09.111Z,65.53
2018-03-07T07:25:36.615Z,69.25
2018-03-07T07:28:04.131Z,68.40
2018-03-07T07:30:31.647Z,66.78
2018-03-07T07:32:59.155Z,71.78
2018-03-07T07:35:26.684Z,70.90
2018-03-07T07:37:54.199Z,70.00
2018-03-07T07:40:22.548Z,65.60
2018-03-07T07:42:50.058Z,72.60
2018-03-07T07:45:17.559Z,70.68
2018-03-07T07:47:46.578Z,61.78
2018-03-07T07:50:14.870Z,62.42
2018-03-07T07:52:42.371Z,58.22
2018-03-07T07:55:09.920Z,63.40
2018-03-07T07:57:37.466Z,60.60
2018-03-07T08:00:05.695Z,61.60
2018-03-07T08:02:33.196Z,77.45
2018-03-07T08:05:00.756Z,65.90
2018-03-07T08:07:28.284Z,76.90
2018-03-07T08:09:56.548Z,88.78
2018-03-07T08:12:24.071Z,61.15
2018-03-07T08:14:51.586Z,59.22
2018-03-07T08:17:19.887Z,68.87
2018-03-07T08:19:47.406Z,71.68
2018-03-07T08:22:15.691Z,70.03
2018-03-07T08:24:43.955Z,60.50
2018-03-07T08:27:12.239Z,59.25
2018-03-07T08:29:40.521Z,59.97
2018-03-07T08:32:08.783Z,55.78
2018-03-07T08:34:36.295Z,58.45
2018-03-07T08:37:03.795Z,43.72
2018-03-07T08:39:31.304Z,42.15
2018-03-07T08:41:58.803Z,37.75
2018-03-07T08:44:26.338Z,36.10
2018-03-07T08:46:53.984Z,36.35
2018-03-07T08:49:21.644Z,34.53
2018-03-07T08:51:49.185Z,36.38
2018-03-07T08:54:16.728Z,45.12
2018-03-07T08:56:45.068Z,95.28
2018-03-07T08:59:12.702Z,171.02
2018-03-07T09:01:40.238Z,96.40
2018-03-07T09:04:07.823Z,43.70
2018-03-07T09:06:35.357Z,36.00
2018-03-07T09:09:03.722Z,34.33
2018-03-07T09:11:32.143Z,28.75
2018-03-07T09:13:59.711Z,33.15
2018-03-07T09:16:27.276Z,29.95
2018-03-07T09:18:54.924Z,32.70
2018-03-07T09:21:22.680Z,30.88
2018-03-07T09:23:50.238Z,29.90
2018-03-07T09:26:17.906Z,29.50
2018-03-07T09:28:45.478Z,33.13
2018-03-07T09:31:13.091Z,32.50
2018-03-07T09:33:40.661Z,26.48
2018-03-07T09:36:09.074Z,27.70
2018-03-07T09:38:36.618Z,29.90
2018-03-07T09:41:04.172Z,29.17
2018-03-07T09:43:31.723Z,31.62
2018-03-07T09:46:00.103Z,31.67
2018-03-07T09:48:27.652Z,29.98
2018-03-07T09:50:56.045Z,30.52
2018-03-07T09:53:23.582Z,28.20
2018-03-07T09:55:51.941Z,30.58
2018-03-07T09:58:20.320Z,30.92
2018-03-07T10:00:47.859Z,29.02
2018-03-07T10:03:15.465Z,25.60
2018-03-07T10:05:43.858Z,29.83
2018-03-07T10:08:12.157Z,26.80
2018-03-07T10:10:39.815Z,29.25
2018-03-07T10:13:07.360Z,25.85
2018-03-07T10:15:34.924Z,28.45
2018-03-07T10:18:02.449Z,24.48
2018-03-07T10:20:30.063Z,24.70
2018-03-07T10:22:57.634Z,24.37
2018-03-07T10:25:25.195Z,22.73
2018-03-07T10:27:52.773Z,24.70
2018-03-07T10:30:20.361Z,22.67
2018-03-07T10:32:48.651Z,27.25
2018-03-07T10:35:17.055Z,27.13
2018-03-07T10:37:44.670Z,28.02
2018-03-07T10:40:12.986Z,21.55
2018-03-07T10:42:40.528Z,24.92
2018-03-07T10:45:08.116Z,23.65
2018-03-07T10:47:35.682Z,24.95
2018-03-07T10:50:03.228Z,25.65
2018-03-07T10:52:30.778Z,26.05
2018-03-07T10:54:58.323Z,24.60
2018-03-07T10:57:26.592Z,26.00
2018-03-07T10:59:54.902Z,24.52
2018-03-07T11:02:22.471Z,24.45
2018-03-07T11:04:50.032Z,23.75
2018-03-07T11:07:17.701Z,22.35
2018-03-07T11:09:45.278Z,24.63
2018-03-07T11:12:12.848Z,24.65
2018-03-07T11:14:40.509Z,22.77
2018-03-07T11:17:08.322Z,20.83
2018-03-07T11:19:35.879Z,22.87
2018-03-07T11:22:03.419Z,21.42
2018-03-07T11:24:31.752Z,22.40
2018-03-07T11:26:59.340Z,21.87
2018-03-07T11:29:27.674Z,20.00
2018-03-07T11:31:55.250Z,22.02
2018-03-07T11:34:22.889Z,23.33
2018-03-07T11:36:50.461Z,18.55
2018-03-07T11:39:18.034Z,21.10
2018-03-07T11:41:45.580Z,23.58
2018-03-07T11:44:13.148Z,21.77
2018-03-07T11:46:40.679Z,21.30
2018-03-07T11:49:08.233Z,20.62
2018-03-07T11:51:35.770Z,21.95
2018-03-07T11:54:04.081Z,21.42
2018-03-07T11:56:31.630Z,20.27
2018-03-07T11:58:59.160Z,21.17
2018-03-07T12:01:27.472Z,19.87
2018-03-07T12:03:55.009Z,20.00
2018-03-07T12:06:23.319Z,18.58
2018-03-07T12:08:50.856Z,19.10
2018-03-07T12:11:18.404Z,16.15
2018-03-07T12:13:45.985Z,16.60
2018-03-07T12:16:13.515Z,16.37
2018-03-07T12:18:41.838Z,15.05
2018-03-07T12:21:09.359Z,14.85
2018-03-07T12:23:36.903Z,15.30
2018-03-07T12:26:05.176Z,15.27
2018-03-07T12:28:33.496Z,13.35
2018-03-07T12:31:01.020Z,15.90
2018-03-07T12:33:29.320Z,15.80
2018-03-07T12:35:56.969Z,15.93
2018-03-07T12:38:25.281Z,16.67
2018-03-07T12:40:52.797Z,15.52
2018-03-07T12:43:21.072Z,15.68
2018-03-07T12:45:49.431Z,15.10
2018-03-07T12:48:17.727Z,12.95
2018-03-07T12:50:46.080Z,13.23
2018-03-07T12:53:13.584Z,13.90
2018-03-07T12:55:41.096Z,13.43
2018-03-07T12:58:08.663Z,12.35
2018-03-07T13:00:36.230Z,12.88
2018-03-07T13:03:03.945Z,13.13
2018-03-07T13:05:31.519Z,13.25
2018-03-07T13:07:59.155Z,13.68
2018-03-07T13:10:26.729Z,11.05
2018-03-07T13:12:54.310Z,12.45
2018-03-07T13:15:21.863Z,12.23
2018-03-07T13:17:49.384Z,12.87
2018-03-07T13:20:16.886Z,11.10
2018-03-07T13:22:44.394Z,11.70
2018-03-07T13:25:11.923Z,11.60
2018-03-07T13:27:40.207Z,13.40
2018-03-07T13:30:07.736Z,13.27
2018-03-07T13:32:35.243Z,14.13
2018-03-07T13:35:03.544Z,14.70
2018-03-07T13:37:31.827Z,15.40
2018-03-07T13:39:59.351Z,15.77
2018-03-07T13:42:27.623Z,16.62
2018-03-07T13:44:55.935Z,16.50
2018-03-07T13:47:23.456Z,17.85
2018-03-07T13:49:51.774Z,16.58
2018-03-07T13:52:19.279Z,17.23
2018-03-07T13:54:46.800Z,15.90
2018-03-07T13:57:14.303Z,16.33
2018-03-07T13:59:42.588Z,16.48
2018-03-07T14:02:10.878Z,17.20
2018-03-07T14:04:38.387Z,17.45
2018-03-07T14:07:06.021Z,17.75
2018-03-07T14:09:33.526Z,19.90
2018-03-07T14:12:01.033Z,17.83
2018-03-07T14:14:28.540Z,17.67
2018-03-07T14:16:56.049Z,19.62
2018-03-07T14:19:23.559Z,20.00
2018-03-07T14:21:51.069Z,17.37
2018-03-07T14:24:18.611Z,18.08
2018-03-07T14:26:46.131Z,17.12
2018-03-07T14:29:13.635Z,16.15
2018-03-07T14:31:41.179Z,17.10
2018-03-07T14:34:08.716Z,15.18
2018-03-07T14:36:37.012Z,16.03
2018-03-07T14:39:05.299Z,17.50
2018-03-07T14:41:32.840Z,15.53
2018-03-07T14:44:01.115Z,16.00
2018-03-07T14:46:29.387Z,16.70
2018-03-07T14:48:57.049Z,16.10
2018-03-07T14:51:25.362Z,15.07
2018-03-07T14:53:52.863Z,16.00
2018-03-07T14:56:20.395Z,17.10
2018-03-07T14:58:47.956Z,18.70
2018-03-07T15:01:15.461Z,16.40
2018-03-07T15:03:43.007Z,15.73
2018-03-07T15:06:10.587Z,15.37
2018-03-07T15:08:38.900Z,14.50
2018-03-07T15:11:06.398Z,16.00
2018-03-07T15:13:33.918Z,16.93
2018-03-07T15:16:01.444Z,17.93
2018-03-07T15:18:29.761Z,16.73
2018-03-07T15:20:57.258Z,17.57
2018-03-07T15:23:25.806Z,16.27
2018-03-07T15:25:53.527Z,17.13
2018-03-07T15:28:21.791Z,17.47
2018-03-07T15:30:49.350Z,17.77
2018-03-07T15:33:16.883Z,17.50
2018-03-07T15:35:44.450Z,18.43
2018-03-07T15:38:12.011Z,20.10
2018-03-07T15:40:39.556Z,18.97
2018-03-07T15:43:07.072Z,17.97
2018-03-07T15:45:34.607Z,18.33
2018-03-07T15:48:02.105Z,18.57
2018-03-07T15:50:29.623Z,27.43
2018-03-07T15:52:57.135Z,24.40
2018-03-07T15:55:24.743Z,23.37
2018-03-07T15:57:52.249Z,24.80
2018-03-07T16:00:19.775Z,26.17
2018-03-07T16:02:48.082Z,19.23
2018-03-07T16:05:15.576Z,20.23
2018-03-07T16:07:43.096Z,19.70
2018-03-07T16:10:10.652Z,22.75
2018-03-07T16:12:38.218Z,21.50
2018-03-07T16:15:05.743Z,20.65
2018-03-07T16:17:34.062Z,21.05
2018-03-07T16:20:01.583Z,22.48
2018-03-07T16:22:29.859Z,21.52
2018-03-07T16:24:57.382Z,24.08
2018-03-07T16:27:24.957Z,21.87
2018-03-07T16:29:52.475Z,21.08
2018-03-07T16:32:20.020Z,20.05
2018-03-07T16:34:47.519Z,19.37
2018-03-07T16:37:15.015Z,20.92
2018-03-07T16:39:43.282Z,21.52
2018-03-07T16:42:11.543Z,20.12
2018-03-07T16:44:40.569Z,21.45
2018-03-07T16:47:08.067Z,24.42
2018-03-07T16:49:35.563Z,23.25
2018-03-07T16:52:03.827Z,23.42
2018-03-07T16:54:31.442Z,26.20
2018-03-07T16:56:59.222Z,24.50
2018-03-07T16:59:27.540Z,24.27
2018-03-07T17:01:55.816Z,23.77
2018-03-07T17:04:23.427Z,25.65
2018-03-07T17:06:50.927Z,29.08
2018-03-07T17:09:18.432Z,30.15
2018-03-07T17:11:46.060Z,40.08
2018-03-07T17:14:14.323Z,54.50
2018-03-07T17:16:41.937Z,44.20
2018-03-07T17:19:09.459Z,30.35
2018-03-07T17:21:37.742Z,23.33
2018-03-07T17:24:06.021Z,23.62
2018-03-07T17:26:34.287Z,22.17
2018-03-07T17:29:02.592Z,27.35
2018-03-07T17:31:30.095Z,20.80
2018-03-07T17:33:57.612Z,21.00
2018-03-07T17:36:25.147Z,18.73
2018-03-07T17:38:52.691Z,20.70
2018-03-07T17:41:20.212Z,18.95
2018-03-07T17:43:47.700Z,17.50
2018-03-07T17:46:15.191Z,19.92
2018-03-07T17:48:43.451Z,20.95
2018-03-07T17:51:11.735Z,22.33
2018-03-07T17:53:40.257Z,20.80
2018-03-07T17:56:07.843Z,24.60
2018-03-07T17:58:35.323Z,23.45
2018-03-07T18:01:03.612Z,22.92
2018-03-07T18:03:31.875Z,22.25
2018-03-07T18:05:59.370Z,20.15
2018-03-07T18:08:26.927Z,18.25
2018-03-07T18:10:54.435Z,17.35
2018-03-07T18:13:22.007Z,18.33
2018-03-07T18:15:49.599Z,20.50
2018-03-07T18:18:17.120Z,18.83
2018-03-07T18:20:44.630Z,22.15
2018-03-07T18:23:12.152Z,25.80
2018-03-07T18:25:40.423Z,24.33
2018-03-07T18:28:07.960Z,25.02
2018-03-07T18:30:35.495Z,22.45
2018-03-07T18:33:03.001Z,22.23
2018-03-07T18:35:30.511Z,22.48
2018-03-07T18:37:58.026Z,20.67
2018-03-07T18:40:26.315Z,21.60
2018-03-07T18:42:54.578Z,28.83
2018-03-07T18:45:22.860Z,22.23
2018-03-07T18:47:51.139Z,20.62
2018-03-07T18:50:19.408Z,21.00
2018-03-07T18:52:47.690Z,18.75
2018-03-07T18:55:15.966Z,19.85
2018-03-07T18:57:44.235Z,18.40
2018-03-07T19:00:12.496Z,20.62
2018-03-07T19:02:39.991Z,21.83
2018-03-07T19:05:07.491Z,27.52
2018-03-07T19:07:35.007Z,29.83
2018-03-07T19:10:02.512Z,27.27
2018-03-07T19:12:30.055Z,24.52
2018-03-07T19:14:57.548Z,26.92
2018-03-07T19:17:25.069Z,30.60
2018-03-07T19:19:52.566Z,27.27
2018-03-07T19:22:20.064Z,22.35
2018-03-07T19:24:47.579Z,23.60
2018-03-07T19:27:16.581Z,21.45
2018-03-07T19:29:44.077Z,22.48
2018-03-07T19:32:11.588Z,22.42
2018-03-07T19:34:40.608Z,22.20
2018-03-07T19:37:08.868Z,22.73
2018-03-07T19:39:36.368Z,21.75
2018-03-07T19:42:03.884Z,21.65
2018-03-07T19:44:32.902Z,23.90
2018-03-07T19:47:01.252Z,21.95
2018-03-07T19:49:28.800Z,20.30
2018-03-07T19:51:56.292Z,20.62
2018-03-07T19:54:24.639Z,21.73
2018-03-07T19:56:52.946Z,21.98
2018-03-07T19:59:20.480Z,23.67
2018-03-07T20:01:48.015Z,22.58
2018-03-07T20:04:15.579Z,21.35
2018-03-07T20:06:43.092Z,20.95
2018-03-07T20:09:10.640Z,22.62
2018-03-07T20:11:38.961Z,20.75
2018-03-07T20:14:06.550Z,21.35
2018-03-07T20:16:34.071Z,22.75
2018-03-07T20:19:01.565Z,22.05
2018-03-07T20:21:29.114Z,21.35
2018-03-07T20:23:56.638Z,22.80
2018-03-07T20:26:24.242Z,22.05
2018-03-07T20:28:51.761Z,21.55
2018-03-07T20:31:19.455Z,22.55
2018-03-07T20:33:47.020Z,22.25
2018-03-07T20:36:14.562Z,21.70
2018-03-07T20:38:42.111Z,22.08
2018-03-07T20:41:09.622Z,21.25
2018-03-07T20:43:37.953Z,24.52
2018-03-07T20:46:05.487Z,23.42
2018-03-07T20:48:33.000Z,21.65
2018-03-07T20:51:00.514Z,22.25
2018-03-07T20:53:28.062Z,22.33
2018-03-07T20:55:55.605Z,22.20
2018-03-07T20:58:23.944Z,22.35
2018-03-07T21:00:51.468Z,21.80
2018-03-07T21:03:18.992Z,22.30
2018-03-07T21:05:47.264Z,21.58
2018-03-07T21:08:15.558Z,24.75
2018-03-07T21:10:43.862Z,25.92
2018-03-07T21:13:11.356Z,25.33
2018-03-07T21:15:38.860Z,24.35
2018-03-07T21:18:06.395Z,25.65
2018-03-07T21:20:34.717Z,26.40
2018-03-07T21:23:02.376Z,24.90
2018-03-07T21:25:29.895Z,26.33
2018-03-07T21:27:58.234Z,27.85
2018-03-07T21:30:25.764Z,25.40
2018-03-07T21:32:53.372Z,24.80
2018-03-07T21:35:20.872Z,24.05
2018-03-07T21:37:48.460Z,22.65
2018-03-07T21:40:15.996Z,22.15
2018-03-07T21:42:43.567Z,23.85
2018-03-07T21:45:11.115Z,24.15
2018-03-07T21:47:38.656Z,23.15
2018-03-07T21:50:06.196Z,22.42
2018-03-07T21:52:33.751Z,24.15
2018-03-07T21:55:01.312Z,23.10
2018-03-07T21:57:28.828Z,24.12
2018-03-07T21:59:56.338Z,21.70
2018-03-07T22:02:23.906Z,23.12
2018-03-07T22:04:52.202Z,20.58
2018-03-07T22:07:19.767Z,19.17
2018-03-07T22:09:47.283Z,19.35
2018-03-07T22:12:14.779Z,19.35
2018-03-07T22:14:42.383Z,19.02
2018-03-07T22:17:09.878Z,18.45
2018-03-07T22:19:38.215Z,18.70
2018-03-07T22:22:05.711Z,16.80
2018-03-07T22:24:34.023Z,19.30
2018-03-07T22:27:01.580Z,14.23
2018-03-07T22:29:29.112Z,12.37
2018-03-07T22:31:57.391Z,14.02
2018-03-07T22:34:25.651Z,12.00
2018-03-07T22:36:53.150Z,12.40
2018-03-07T22:39:20.650Z,11.65
2018-03-07T22:41:48.143Z,12.63
2018-03-07T22:44:16.420Z,11.18
2018-03-07T22:46:44.695Z,10.60
2018-03-07T22:49:12.951Z,12.18
2018-03-07T22:51:40.459Z,11.12
2018-03-07T22:54:07.975Z,11.77
2018-03-07T22:56:35.491Z,10.32
2018-03-07T22:59:03.035Z,9.93
2018-03-07T23:01:30.547Z,10.38
2018-03-07T23:03:58.035Z,8.98
2018-03-07T23:06:25.586Z,8.82
2018-03-07T23:08:53.075Z,10.15
2018-03-07T23:11:20.576Z,10.18
2018-03-07T23:13:48.064Z,8.95
2018-03-07T23:16:16.320Z,9.13
2018-03-07T23:18:43.802Z,8.05
2018-03-07T23:21:11.303Z,8.07
2018-03-07T23:23:38.812Z,8.25
2018-03-07T23:26:07.083Z,8.05
2018-03-07T23:28:35.351Z,7.40
2018-03-07T23:31:03.612Z,8.20
2018-03-07T23:33:31.099Z,7.80
2018-03-07T23:35:59.379Z,5.95
2018-03-07T23:38:26.871Z,7.35
2018-03-07T23:40:54.359Z,7.25
2018-03-07T23:43:21.850Z,8.02
2018-03-07T23:45:50.111Z,8.20
2018-03-07T23:48:18.378Z,8.18
2018-03-07T23:50:45.881Z,10.25
2018-03-07T23:53:13.406Z,9.18
2018-03-07T23:55:41.677Z,8.55
2018-03-07T23:58:09.195Z,9.32
